createdAt,value
2023-12-01T00:00:40.941Z,36.65
2023-12-01T00:03:07.676Z,34.83
2023-12-01T00:05:34.389Z,35.00
2023-12-01T00:08:01.116Z,33.00
2023-12-01T00:10:27.749Z,36.67
2023-12-01T00:12:54.422Z,34.58
2023-12-01T00:15:21.141Z,38.97
2023-12-01T00:17:47.868Z,31.85
2023-12-01T00:20:14.812Z,36.63
2023-12-01T00:22:41.485Z,36.22
2023-12-01T00:25:08.559Z,36.47
2023-12-01T00:27:35.293Z,32.72
2023-12-01T00:30:02.067Z,34.08
2023-12-01T00:32:28.816Z,33.92
2023-12-01T00:34:56.090Z,36.15
2023-12-01T00:37:22.767Z,42.63
2023-12-01T00:39:49.503Z,32.90
2023-12-01T00:42:16.216Z,34.28
2023-12-01T00:44:43.926Z,38.47
2023-12-01T00:47:10.730Z,33.95
2023-12-01T00:49:37.398Z,37.22
2023-12-01T00:52:05.519Z,33.53
2023-12-01T00:54:32.803Z,35.78
2023-12-01T00:56:59.585Z,36.50
2023-12-01T00:59:26.209Z,38.58
2023-12-01T01:01:52.903Z,49.70
2023-12-01T01:04:20.108Z,41.03
2023-12-01T01:06:46.914Z,40.38
2023-12-01T01:09:13.656Z,38.10
2023-12-01T01:11:40.368Z,39.10
2023-12-01T01:14:07.072Z,38.80
2023-12-01T01:16:33.992Z,42.95
2023-12-01T01:19:00.709Z,42.15
2023-12-01T01:21:27.418Z,41.65
2023-12-01T01:23:54.081Z,40.83
2023-12-01T01:26:20.733Z,41.65
2023-12-01T01:28:47.461Z,43.65
2023-12-01T01:31:14.221Z,37.83
2023-12-01T01:33:41.276Z,40.92
2023-12-01T01:36:08.687Z,43.33
2023-12-01T01:38:35.347Z,35.97
2023-12-01T01:41:02.085Z,32.95
2023-12-01T01:43:28.833Z,37.60
2023-12-01T01:46:03.709Z,36.65
2023-12-01T01:48:31.601Z,34.72
2023-12-01T01:50:59.416Z,35.88
2023-12-01T01:53:26.717Z,37.15
2023-12-01T01:55:53.833Z,35.50
2023-12-01T01:58:20.787Z,35.65
2023-12-01T02:00:51.054Z,42.95
2023-12-01T02:03:20.244Z,35.38
2023-12-01T02:05:49.135Z,35.40
2023-12-01T02:08:29.867Z,37.50
2023-12-01T02:10:58.672Z,38.25
2023-12-01T02:13:25.603Z,38.08
2023-12-01T02:15:53.288Z,37.08
2023-12-01T02:18:28.436Z,43.08
2023-12-01T02:20:56.887Z,39.47
2023-12-01T02:23:24.216Z,39.92
2023-12-01T02:25:51.642Z,43.63
2023-12-01T02:28:18.712Z,40.55
2023-12-01T02:30:53.796Z,36.70
2023-12-01T02:33:21.120Z,41.55
2023-12-01T02:35:49.204Z,53.88
2023-12-01T02:38:16.281Z,46.70
2023-12-01T02:40:50.920Z,42.90
2023-12-01T02:43:18.917Z,37.05
2023-12-01T02:45:46.349Z,39.75
2023-12-01T02:48:13.291Z,40.85
2023-12-01T02:50:40.214Z,43.08
2023-12-01T02:53:07.768Z,39.20
2023-12-01T02:55:34.721Z,38.33
2023-12-01T02:58:02.180Z,40.75
2023-12-01T03:00:29.027Z,39.55
2023-12-01T03:02:55.769Z,40.95
2023-12-01T03:05:23.094Z,42.10
2023-12-01T03:07:49.866Z,43.20
2023-12-01T03:10:16.898Z,43.85
2023-12-01T03:12:44.914Z,44.45
2023-12-01T03:15:13.551Z,39.72
2023-12-01T03:17:41.174Z,45.50
2023-12-01T03:20:11.171Z,39.60
2023-12-01T03:22:40.163Z,44.33
2023-12-01T03:25:13.452Z,45.85
2023-12-01T03:27:41.574Z,44.30
2023-12-01T03:30:16.807Z,41.22
2023-12-01T03:32:50.975Z,40.33
2023-12-01T03:35:22.928Z,43.33
2023-12-01T03:37:51.031Z,39.22
2023-12-01T03:40:17.868Z,42.47
2023-12-01T03:42:49.134Z,41.53
2023-12-01T03:45:17.290Z,40.43
2023-12-01T03:47:46.177Z,38.88
2023-12-01T03:50:13.586Z,34.60
2023-12-01T03:52:44.635Z,35.97
2023-12-01T03:55:12.925Z,37.17
2023-12-01T03:57:41.218Z,38.50
2023-12-01T04:00:09.821Z,36.65
2023-12-01T04:02:42.457Z,36.13
2023-12-01T04:05:10.198Z,37.53
2023-12-01T04:07:37.231Z,36.88
2023-12-01T04:10:11.997Z,34.92
2023-12-01T04:12:45.978Z,38.20
2023-12-01T04:15:16.860Z,32.67
2023-12-01T04:17:45.206Z,30.48
2023-12-01T04:20:28.372Z,29.60
2023-12-01T04:22:59.689Z,29.48
2023-12-01T04:25:27.312Z,28.05
2023-12-01T04:27:54.938Z,26.00
2023-12-01T04:30:23.150Z,36.00
2023-12-01T04:32:55.888Z,24.90
2023-12-01T04:35:26.013Z,28.38
2023-12-01T04:37:52.857Z,24.25
2023-12-01T04:40:19.713Z,27.73
2023-12-01T04:42:47.982Z,29.10
2023-12-01T04:45:17.475Z,23.85
2023-12-01T04:47:46.038Z,23.40
2023-12-01T04:50:16.158Z,27.75
2023-12-01T04:52:44.529Z,22.58
2023-12-01T04:55:16.097Z,23.98
2023-12-01T04:57:44.121Z,24.10
2023-12-01T05:00:22.631Z,22.95
2023-12-01T05:02:53.728Z,23.95
2023-12-01T05:05:25.353Z,24.00
2023-12-01T05:07:54.102Z,21.83
2023-12-01T05:10:22.628Z,22.80
2023-12-01T05:12:51.958Z,20.58
2023-12-01T05:15:20.607Z,29.38
2023-12-01T05:18:14.025Z,21.10
2023-12-01T05:20:41.242Z,23.15
2023-12-01T05:23:11.746Z,23.67
2023-12-01T05:25:40.811Z,23.73
2023-12-01T05:28:09.341Z,22.55
2023-12-01T05:30:39.824Z,19.50
2023-12-01T05:33:06.599Z,24.45
2023-12-01T05:35:36.329Z,24.15
2023-12-01T05:38:05.491Z,22.02
2023-12-01T05:40:37.910Z,21.35
2023-12-01T05:43:07.132Z,20.10
2023-12-01T05:45:34.649Z,21.55
2023-12-01T05:48:04.174Z,21.73
2023-12-01T05:50:34.264Z,20.05
2023-12-01T05:53:03.486Z,24.90
2023-12-01T05:55:33.966Z,22.58
2023-12-01T05:58:10.445Z,22.73
2023-12-01T06:00:37.946Z,24.15
2023-12-01T06:03:08.838Z,20.45
2023-12-01T06:05:37.018Z,20.90
2023-12-01T06:08:05.044Z,22.48
2023-12-01T06:10:34.104Z,20.58
2023-12-01T06:13:01.855Z,23.77
2023-12-01T06:15:32.276Z,26.38
2023-12-01T06:18:01.282Z,20.58
2023-12-01T06:20:28.381Z,22.67
2023-12-01T06:22:57.770Z,19.98
2023-12-01T06:25:28.554Z,22.73
2023-12-01T06:27:59.922Z,19.77
2023-12-01T06:30:35.343Z,19.65
2023-12-01T06:33:04.562Z,18.33
2023-12-01T06:35:31.376Z,21.40
2023-12-01T06:37:58.316Z,21.38
2023-12-01T06:40:25.484Z,24.42
2023-12-01T06:42:56.731Z,28.23
2023-12-01T06:45:29.378Z,26.95
2023-12-01T06:48:01.901Z,31.23
2023-12-01T06:50:30.208Z,24.10
2023-12-01T06:53:01.085Z,25.20
2023-12-01T06:55:28.460Z,22.45
2023-12-01T06:57:55.210Z,19.80
2023-12-01T07:00:31.803Z,23.50
2023-12-01T07:03:08.180Z,25.25
2023-12-01T07:05:36.910Z,23.35
2023-12-01T07:08:06.479Z,24.10
2023-12-01T07:10:37.461Z,23.55
2023-12-01T07:13:06.646Z,27.00
2023-12-01T07:15:33.527Z,25.50
2023-12-01T07:18:00.456Z,26.63
2023-12-01T07:20:27.287Z,27.55
2023-12-01T07:22:57.474Z,20.23
2023-12-01T07:25:25.898Z,23.13
2023-12-01T07:28:02.591Z,26.02
2023-12-01T07:30:29.865Z,25.58
2023-12-01T07:32:58.231Z,24.88
2023-12-01T07:35:25.005Z,21.20
2023-12-01T07:37:54.573Z,25.83
2023-12-01T07:40:23.041Z,23.42
2023-12-01T07:42:51.966Z,25.08
2023-12-01T07:45:19.887Z,29.50
2023-12-01T07:47:52.112Z,24.33
2023-12-01T07:52:51.099Z,25.33
2023-12-01T07:55:19.438Z,25.60
2023-12-01T07:57:46.158Z,23.30
2023-12-01T08:00:16.792Z,26.45
2023-12-01T08:02:48.428Z,22.67
2023-12-01T08:05:16.083Z,23.52
2023-12-01T08:07:53.321Z,21.23
2023-12-01T08:10:22.022Z,23.98
2023-12-01T08:12:50.898Z,22.55
2023-12-01T08:15:18.362Z,29.75
2023-12-01T08:17:46.421Z,23.13
2023-12-01T08:20:13.643Z,25.42
2023-12-01T08:22:40.918Z,25.17
2023-12-01T08:25:09.573Z,24.25
2023-12-01T08:27:37.143Z,26.73
2023-12-01T08:30:04.747Z,33.50
2023-12-01T08:32:31.896Z,25.08
2023-12-01T08:34:58.956Z,24.10
2023-12-01T08:37:25.969Z,28.25
2023-12-01T08:39:52.843Z,27.92
2023-12-01T08:42:20.254Z,30.08
2023-12-01T08:44:47.131Z,29.63
2023-12-01T08:47:16.369Z,23.92
2023-12-01T08:49:43.084Z,26.90
2023-12-01T08:52:09.793Z,29.50
2023-12-01T08:54:36.610Z,30.58
2023-12-01T08:57:03.781Z,25.02
2023-12-01T08:59:30.471Z,25.60
2023-12-01T09:01:57.234Z,22.75
2023-12-01T09:04:24.047Z,20.98
2023-12-01T09:06:50.690Z,26.88
2023-12-01T09:09:18.945Z,23.52
2023-12-01T09:12:02.638Z,25.08
2023-12-01T09:14:29.502Z,35.05
2023-12-01T09:16:56.231Z,22.85
2023-12-01T09:19:23.027Z,28.13
2023-12-01T09:21:50.004Z,32.05
2023-12-01T09:24:17.063Z,27.20
2023-12-01T09:26:43.852Z,25.52
2023-12-01T09:29:11.008Z,23.70
2023-12-01T09:31:46.098Z,23.08
2023-12-01T09:34:12.934Z,24.90
2023-12-01T09:36:40.468Z,24.27
2023-12-01T09:39:07.235Z,21.65
2023-12-01T09:41:37.710Z,32.20
2023-12-01T09:44:10.944Z,25.15
2023-12-01T09:46:41.201Z,26.17
2023-12-01T09:49:08.126Z,23.77
2023-12-01T09:51:37.602Z,24.35
2023-12-01T09:54:05.311Z,27.67
2023-12-01T09:56:33.150Z,24.10
2023-12-01T09:59:00.681Z,28.42
2023-12-01T10:01:28.061Z,26.33
2023-12-01T10:03:54.997Z,32.97
2023-12-01T10:06:22.584Z,28.85
2023-12-01T10:08:50.897Z,28.23
2023-12-01T10:11:25.999Z,31.58
2023-12-01T10:13:53.810Z,29.25
2023-12-01T10:16:23.120Z,29.65
2023-12-01T10:19:01.130Z,26.00
2023-12-01T10:21:44.954Z,28.88
2023-12-01T10:24:21.961Z,30.00
2023-12-01T10:26:51.145Z,34.25
2023-12-01T10:29:32.740Z,31.92
2023-12-01T10:32:01.739Z,29.47
2023-12-01T10:34:28.483Z,31.77
2023-12-01T10:36:56.156Z,26.08
2023-12-01T10:39:29.207Z,27.08
2023-12-01T10:42:01.402Z,26.52
2023-12-01T10:44:32.359Z,29.50
2023-12-01T10:47:00.321Z,27.27
2023-12-01T10:49:28.405Z,25.67
2023-12-01T10:51:57.268Z,26.52
2023-12-01T10:54:27.586Z,24.10
2023-12-01T10:57:16.613Z,24.05
2023-12-01T10:59:52.250Z,25.00
2023-12-01T11:02:19.957Z,23.63
2023-12-01T11:04:47.376Z,24.52
2023-12-01T11:07:32.884Z,23.25
2023-12-01T11:10:22.901Z,25.42
2023-12-01T11:13:04.943Z,29.70
2023-12-01T11:15:36.371Z,27.05
2023-12-01T11:18:03.289Z,25.30
2023-12-01T11:20:35.756Z,25.75
2023-12-01T11:23:16.352Z,23.95
2023-12-01T11:25:49.896Z,22.73
2023-12-01T11:28:44.466Z,26.70
2023-12-01T11:31:38.872Z,23.77
2023-12-01T11:34:06.610Z,24.33
2023-12-01T11:36:35.190Z,25.75
2023-12-01T11:39:11.132Z,26.08
2023-12-01T11:41:48.134Z,23.67
2023-12-01T11:44:38.590Z,22.58
2023-12-01T11:47:09.062Z,20.38
2023-12-01T11:49:40.347Z,25.75
2023-12-01T11:52:11.913Z,26.60
2023-12-01T11:54:39.174Z,24.55
2023-12-01T11:57:08.003Z,20.48
2023-12-01T11:59:35.855Z,21.20
2023-12-01T12:02:03.481Z,19.88
2023-12-01T12:04:30.903Z,23.45
2023-12-01T12:07:01.588Z,25.10
2023-12-01T12:09:33.580Z,20.10
2023-12-01T12:12:10.909Z,22.25
2023-12-01T12:14:39.772Z,19.65
2023-12-01T12:17:07.390Z,21.33
2023-12-01T12:19:50.440Z,18.42
2023-12-01T12:22:21.572Z,20.73
2023-12-01T12:24:49.435Z,18.02
2023-12-01T12:27:16.672Z,19.80
2023-12-01T12:29:44.012Z,19.50
2023-12-01T12:32:10.834Z,23.83
2023-12-01T12:34:39.888Z,19.90
2023-12-01T12:37:06.606Z,22.52
2023-12-01T12:39:33.688Z,19.88
2023-12-01T12:42:02.909Z,25.83
2023-12-01T12:44:35.327Z,29.77
2023-12-01T12:47:06.491Z,22.63
2023-12-01T12:49:35.431Z,24.73
2023-12-01T12:52:04.264Z,26.95
2023-12-01T12:54:32.630Z,25.40
2023-12-01T12:56:59.501Z,26.13
2023-12-01T12:59:26.207Z,33.03
2023-12-01T13:01:53.696Z,29.30
2023-12-01T13:04:21.592Z,31.05
2023-12-01T13:06:50.234Z,34.67
2023-12-01T13:09:18.992Z,31.58
2023-12-01T13:11:46.344Z,34.22
2023-12-01T13:14:14.728Z,34.60
2023-12-01T13:16:52.466Z,32.97
2023-12-01T13:19:23.614Z,33.75
2023-12-01T13:21:53.934Z,31.88
2023-12-01T13:24:22.801Z,34.70
2023-12-01T13:26:49.867Z,33.00
2023-12-01T13:29:16.671Z,36.28
2023-12-01T13:31:43.658Z,30.52
2023-12-01T13:34:10.664Z,33.17
2023-12-01T13:36:37.365Z,31.13
2023-12-01T13:39:04.426Z,37.85
2023-12-01T13:41:32.013Z,39.35
2023-12-01T13:43:58.943Z,34.97
2023-12-01T13:46:25.660Z,39.30
2023-12-01T13:48:52.618Z,43.80
2023-12-01T13:51:19.494Z,36.05
2023-12-01T13:53:46.192Z,34.55
2023-12-01T13:56:13.092Z,38.03
2023-12-01T13:58:43.786Z,40.45
2023-12-01T14:03:38.995Z,39.75
2023-12-01T14:06:06.527Z,37.85
2023-12-01T14:08:33.382Z,42.05
2023-12-01T14:11:00.155Z,36.83
2023-12-01T14:13:26.918Z,38.58
2023-12-01T14:15:54.317Z,37.25
2023-12-01T14:18:21.119Z,43.45
2023-12-01T14:20:47.911Z,47.10
2023-12-01T14:23:14.644Z,62.60
2023-12-01T14:25:41.278Z,47.55
2023-12-01T14:28:08.384Z,43.78
2023-12-01T14:30:35.053Z,39.67
2023-12-01T14:33:02.442Z,37.25
2023-12-01T14:35:29.399Z,38.92
2023-12-01T14:37:56.038Z,34.78
2023-12-01T14:40:22.847Z,39.13
2023-12-01T14:42:49.895Z,37.28
2023-12-01T14:45:16.664Z,41.45
2023-12-01T14:47:43.481Z,29.67
2023-12-01T14:50:10.421Z,34.88
2023-12-01T14:52:37.127Z,34.42
2023-12-01T14:55:04.636Z,32.35
2023-12-01T14:57:31.359Z,37.20
2023-12-01T14:59:58.058Z,32.55
2023-12-01T15:02:24.827Z,39.75
2023-12-01T15:04:51.773Z,35.10
2023-12-01T15:07:18.510Z,38.92
2023-12-01T15:09:45.171Z,33.00
2023-12-01T15:12:12.055Z,34.92
2023-12-01T15:14:38.734Z,42.08
2023-12-01T15:17:05.664Z,41.20
2023-12-01T15:19:33.658Z,38.42
2023-12-01T15:22:01.354Z,38.53
2023-12-01T15:24:28.273Z,35.53
2023-12-01T15:26:57.929Z,43.30
2023-12-01T15:29:25.549Z,36.20
2023-12-01T15:31:52.661Z,30.58
2023-12-01T15:34:19.368Z,42.70
2023-12-01T15:36:46.091Z,42.42
2023-12-01T15:39:12.977Z,41.25
2023-12-01T15:41:40.254Z,39.78
2023-12-01T15:44:07.633Z,36.55
2023-12-01T15:46:34.412Z,42.05
2023-12-01T15:49:01.211Z,37.28
2023-12-01T15:51:28.120Z,48.10
2023-12-01T15:53:55.067Z,44.83
2023-12-01T15:56:22.167Z,43.95
2023-12-01T15:58:48.826Z,40.00
2023-12-01T16:01:15.572Z,39.63
2023-12-01T16:03:42.396Z,37.25
2023-12-01T16:06:09.955Z,42.28
2023-12-01T16:08:36.650Z,35.33
2023-12-01T16:11:04.156Z,41.05
2023-12-01T16:13:30.915Z,34.60
2023-12-01T16:15:57.633Z,41.05
2023-12-01T16:18:25.613Z,41.88
2023-12-01T16:20:53.339Z,37.20
2023-12-01T16:23:20.985Z,37.88
2023-12-01T16:25:50.488Z,43.08
2023-12-01T16:28:17.491Z,49.85
2023-12-01T16:30:44.620Z,44.67
2023-12-01T16:33:11.391Z,48.22
2023-12-01T16:35:38.078Z,48.95
2023-12-01T16:38:06.361Z,49.72
2023-12-01T16:40:33.168Z,41.55
2023-12-01T16:42:59.909Z,39.47
2023-12-01T16:45:26.646Z,35.97
2023-12-01T16:47:53.869Z,36.97
2023-12-01T16:50:20.668Z,31.45
2023-12-01T16:52:47.349Z,37.03
2023-12-01T16:55:16.290Z,32.92
2023-12-01T16:57:43.178Z,37.72
2023-12-01T17:00:10.619Z,34.17
2023-12-01T17:02:39.458Z,37.58
2023-12-01T17:05:06.386Z,34.22
2023-12-01T17:07:33.111Z,35.83
2023-12-01T17:09:59.838Z,33.78
2023-12-01T17:12:26.662Z,35.28
2023-12-01T17:14:53.415Z,35.22
2023-12-01T17:17:20.434Z,40.20
2023-12-01T17:19:47.106Z,40.95
2023-12-01T17:22:14.223Z,36.38
2023-12-01T17:24:43.044Z,34.35
2023-12-01T17:27:13.356Z,37.08
2023-12-01T17:29:43.980Z,37.60
2023-12-01T17:32:11.096Z,34.40
2023-12-01T17:34:38.136Z,34.70
2023-12-01T17:37:05.255Z,35.40
2023-12-01T17:39:31.903Z,33.30
2023-12-01T17:41:58.675Z,33.92
2023-12-01T17:44:25.406Z,34.15
2023-12-01T17:46:52.133Z,35.33
2023-12-01T17:49:18.804Z,37.50
2023-12-01T17:51:45.487Z,30.38
2023-12-01T17:54:15.145Z,27.75
2023-12-01T17:56:41.813Z,29.80
2023-12-01T17:59:08.620Z,27.48
2023-12-01T18:01:36.450Z,27.02
2023-12-01T18:04:04.779Z,22.88
2023-12-01T18:06:32.231Z,26.55
2023-12-01T18:08:58.983Z,28.80
2023-12-01T18:11:25.869Z,29.23
2023-12-01T18:13:52.757Z,25.88
2023-12-01T18:16:21.422Z,27.52
2023-12-01T18:18:48.492Z,28.30
2023-12-01T18:21:15.498Z,23.67
2023-12-01T18:23:42.273Z,27.63
2023-12-01T18:26:09.012Z,26.20
2023-12-01T18:28:35.714Z,29.83
2023-12-01T18:31:02.517Z,28.00
2023-12-01T18:33:29.299Z,31.13
2023-12-01T18:35:56.135Z,24.05
2023-12-01T18:38:22.937Z,26.23
2023-12-01T18:40:49.657Z,34.75
2023-12-01T18:43:16.405Z,38.60
2023-12-01T18:45:43.783Z,23.33
2023-12-01T18:48:10.616Z,26.17
2023-12-01T18:50:37.481Z,25.33
2023-12-01T18:53:04.235Z,28.45
2023-12-01T18:55:31.058Z,24.00
2023-12-01T18:57:58.114Z,30.08
2023-12-01T19:00:27.454Z,28.52
2023-12-01T19:02:54.925Z,29.90
2023-12-01T19:05:23.432Z,26.73
2023-12-01T19:07:50.721Z,30.65
2023-12-01T19:10:17.472Z,21.27
2023-12-01T19:12:44.204Z,24.15
2023-12-01T19:15:11.131Z,26.05
2023-12-01T19:17:37.883Z,20.90
2023-12-01T19:20:05.740Z,21.08
2023-12-01T19:22:32.959Z,28.67
2023-12-01T19:25:00.814Z,25.90
2023-12-01T19:27:28.031Z,26.23
2023-12-01T19:29:54.900Z,31.60
2023-12-01T19:32:21.726Z,29.35
2023-12-01T19:34:48.467Z,31.42
2023-12-01T19:37:15.570Z,26.08
2023-12-01T19:39:42.223Z,28.98
2023-12-01T19:42:11.804Z,29.15
2023-12-01T19:44:38.903Z,35.00
2023-12-01T19:47:05.868Z,33.53
2023-12-01T19:49:32.934Z,31.17
2023-12-01T19:51:59.662Z,32.47
2023-12-01T19:54:26.419Z,36.17
2023-12-01T19:56:53.238Z,32.20
2023-12-01T19:59:20.447Z,35.97
2023-12-01T20:01:48.243Z,36.38
2023-12-01T20:04:15.102Z,45.50
2023-12-01T20:06:41.960Z,31.08
2023-12-01T20:09:08.977Z,28.95
2023-12-01T20:11:35.683Z,30.33
2023-12-01T20:14:02.433Z,38.20
2023-12-01T20:16:29.689Z,37.60
2023-12-01T20:18:57.370Z,39.45
2023-12-01T20:21:24.563Z,40.13
2023-12-01T20:23:53.013Z,39.53
2023-12-01T20:26:19.734Z,41.33
2023-12-01T20:28:46.360Z,40.33
2023-12-01T20:31:12.998Z,43.67
2023-12-01T20:33:39.815Z,42.67
2023-12-01T20:36:06.911Z,51.35
2023-12-01T20:38:35.927Z,46.45
2023-12-01T20:41:08.275Z,51.00
2023-12-01T20:46:05.747Z,49.65
2023-12-01T20:48:34.846Z,45.42
2023-12-01T20:51:01.888Z,47.55
2023-12-01T20:53:28.654Z,45.33
2023-12-01T20:55:55.371Z,42.58
2023-12-01T20:58:22.031Z,41.90
2023-12-01T21:00:48.729Z,39.17
2023-12-01T21:03:16.780Z,39.50
2023-12-01T21:05:43.842Z,39.92
2023-12-01T21:08:10.554Z,45.80
2023-12-01T21:10:37.648Z,43.40
2023-12-01T21:13:05.669Z,44.15
2023-12-01T21:15:32.358Z,48.13
2023-12-01T21:17:59.248Z,45.28
2023-12-01T21:20:26.115Z,50.17
2023-12-01T21:22:55.683Z,46.17
2023-12-01T21:25:24.007Z,53.85
2023-12-01T21:27:51.265Z,44.95
2023-12-01T21:30:18.218Z,40.33
2023-12-01T21:32:45.166Z,41.45
2023-12-01T21:35:12.117Z,40.80
2023-12-01T21:37:38.861Z,39.65
2023-12-01T21:40:06.526Z,41.88
2023-12-01T21:42:33.293Z,30.33
2023-12-01T21:45:00.033Z,41.35
2023-12-01T21:47:26.719Z,38.88
2023-12-01T21:49:53.439Z,44.38
2023-12-01T21:52:20.133Z,38.55
2023-12-01T21:54:46.872Z,43.28
2023-12-01T21:57:15.380Z,43.10
2023-12-01T21:59:42.063Z,42.70
2023-12-01T22:02:08.789Z,45.88
2023-12-01T22:04:35.551Z,42.78
2023-12-01T22:07:02.241Z,47.22
2023-12-01T22:09:29.105Z,37.60
2023-12-01T22:11:55.835Z,43.70
2023-12-01T22:14:23.332Z,40.20
2023-12-01T22:16:51.153Z,45.30
2023-12-01T22:19:18.041Z,41.17
2023-12-01T22:21:44.761Z,45.50
2023-12-01T22:24:11.687Z,43.85
2023-12-01T22:26:38.423Z,36.33
2023-12-01T22:29:05.098Z,45.92
2023-12-01T22:31:32.325Z,42.55
2023-12-01T22:33:59.396Z,42.95
2023-12-01T22:36:26.290Z,40.75
2023-12-01T22:38:53.079Z,43.22
2023-12-01T22:41:22.709Z,41.35
2023-12-01T22:43:49.407Z,42.47
2023-12-01T22:46:16.692Z,35.58
2023-12-01T22:48:44.439Z,32.60
2023-12-01T22:51:13.525Z,36.90
2023-12-01T22:53:40.764Z,30.15
2023-12-01T22:56:09.651Z,35.72
2023-12-01T22:58:37.138Z,35.63
2023-12-01T23:01:04.340Z,51.08
2023-12-01T23:03:31.586Z,35.28
2023-12-01T23:21:01.054Z,34.88
2023-12-01T23:23:27.932Z,37.80
2023-12-01T23:25:54.761Z,41.45
2023-12-01T23:28:21.518Z,34.63
2023-12-01T23:30:48.286Z,45.72
2023-12-01T23:33:15.146Z,49.42
2023-12-01T23:39:22.586Z,32.78
2023-12-01T23:41:49.462Z,35.97
2023-12-01T23:44:16.239Z,36.03
2023-12-01T23:46:42.906Z,34.00
2023-12-01T23:49:09.688Z,36.58
2023-12-01T23:51:36.795Z,35.00
2023-12-01T23:54:03.534Z,40.80
2023-12-01T23:56:30.309Z,34.05
2023-12-01T23:58:57.005Z,30.42
